createdAt,value
2019-03-01T00:01:41.559Z,10.37
2019-03-01T00:06:59.004Z,14.37
2019-03-01T00:12:31.562Z,9.50
2019-03-01T00:18:10.337Z,6.05
2019-03-01T00:23:50.901Z,6.73
2019-03-01T00:29:13.912Z,8.80
2019-03-01T00:34:44.055Z,9.00
2019-03-01T00:40:08.025Z,6.03
2019-03-01T00:45:14.018Z,6.20
2019-03-01T00:50:18.785Z,3.97
2019-03-01T00:55:23.814Z,6.37
2019-03-01T01:00:33.395Z,4.60
2019-03-01T01:05:37.750Z,4.67
2019-03-01T01:10:43.088Z,4.90
2019-03-01T01:15:47.886Z,5.23
2019-03-01T01:20:52.403Z,5.37
2019-03-01T01:25:57.357Z,7.20
2019-03-01T01:31:01.880Z,10.23
2019-03-01T01:36:07.107Z,4.73
2019-03-01T01:41:16.874Z,2.90
2019-03-01T01:46:21.338Z,4.30
2019-03-01T01:51:25.924Z,2.30
2019-03-01T01:56:33.283Z,5.77
2019-03-01T02:01:38.671Z,5.13
2019-03-01T02:06:43.492Z,5.53
2019-03-01T02:11:48.238Z,7.67
2019-03-01T02:16:53.101Z,2.50
2019-03-01T02:21:58.065Z,4.50
2019-03-01T02:27:28.750Z,2.30
2019-03-01T02:32:39.589Z,5.30
2019-03-01T02:37:44.102Z,2.10
2019-03-01T02:42:48.665Z,2.30
2019-03-01T02:47:53.739Z,5.20
2019-03-01T02:52:58.194Z,1.57
2019-03-01T02:58:04.184Z,5.43
2019-03-01T03:03:09.417Z,6.27
2019-03-01T03:08:14.146Z,2.80
2019-03-01T03:13:19.663Z,6.63
2019-03-01T03:18:24.789Z,3.30
2019-03-01T03:23:29.569Z,0.93
2019-03-01T03:28:34.100Z,1.30
2019-03-01T03:33:39.305Z,3.33
2019-03-01T03:38:43.939Z,2.67
2019-03-01T03:43:48.348Z,3.87
2019-03-01T03:48:53.910Z,1.77
2019-03-01T03:54:00.455Z,2.62
2019-03-01T03:59:05.460Z,1.97
2019-03-01T04:04:09.952Z,4.27
2019-03-01T04:09:15.109Z,3.70
2019-03-01T04:14:20.823Z,3.07
2019-03-01T04:19:25.749Z,2.90
2019-03-01T04:24:30.434Z,2.43
2019-03-01T04:29:35.977Z,4.83
2019-03-01T04:34:41.397Z,5.83
2019-03-01T04:39:46.409Z,2.57
2019-03-01T04:44:51.760Z,3.87
2019-03-01T04:49:56.864Z,6.30
2019-03-01T04:55:02.743Z,8.47
2019-03-01T05:00:10.194Z,3.90
2019-03-01T05:05:16.015Z,5.93
2019-03-01T05:10:22.078Z,8.37
2019-03-01T05:15:26.640Z,5.43
2019-03-01T05:20:31.864Z,3.02
2019-03-01T05:25:36.799Z,3.30
2019-03-01T05:30:42.939Z,2.53
2019-03-01T05:35:48.010Z,3.97
2019-03-01T05:40:52.815Z,1.80
2019-03-01T05:45:58.451Z,4.50
2019-03-01T05:51:03.775Z,5.60
2019-03-01T05:56:08.336Z,3.20
2019-03-01T06:01:43.694Z,1.60
2019-03-01T06:07:30.013Z,2.53
2019-03-01T06:13:31.230Z,1.50
2019-03-01T06:19:16.314Z,0.80
2019-03-01T06:24:50.246Z,3.13
2019-03-01T06:30:28.736Z,1.33
2019-03-01T06:35:48.286Z,1.97
2019-03-01T06:41:27.413Z,1.87
2019-03-01T06:46:59.397Z,0.47
2019-03-01T06:52:05.366Z,1.17
2019-03-01T06:57:09.996Z,0.90
2019-03-01T07:02:18.867Z,0.40
2019-03-01T07:07:23.685Z,1.73
2019-03-01T07:12:34.471Z,0.40
2019-03-01T07:17:40.294Z,0.93
2019-03-01T07:22:45.272Z,0.83
2019-03-01T07:27:50.146Z,1.53
2019-03-01T07:32:55.462Z,0.47
2019-03-01T07:38:00.967Z,0.80
2019-03-01T07:43:07.672Z,0.50
2019-03-01T07:48:12.624Z,0.40
2019-03-01T07:53:17.473Z,2.10
2019-03-01T07:58:25.709Z,2.12
2019-03-01T08:03:32.380Z,0.63
2019-03-01T08:08:38.818Z,0.90
2019-03-01T08:13:49.247Z,0.70
2019-03-01T08:18:52.430Z,0.93
2019-03-01T08:23:57.529Z,1.63
2019-03-01T08:29:02.674Z,5.60
2019-03-01T08:34:07.437Z,2.63
2019-03-01T08:39:12.000Z,3.87
2019-03-01T08:44:19.422Z,1.87
2019-03-01T08:49:22.596Z,2.13
2019-03-01T08:54:27.664Z,0.60
2019-03-01T08:59:32.961Z,1.87
2019-03-01T09:04:40.451Z,1.10
2019-03-01T09:09:45.854Z,0.90
2019-03-01T09:14:50.908Z,1.40
2019-03-01T09:19:57.132Z,0.53
2019-03-01T09:25:02.667Z,2.10
2019-03-01T09:30:14.893Z,0.73
2019-03-01T09:35:57.954Z,0.30
2019-03-01T09:41:04.651Z,0.50
2019-03-01T09:46:09.592Z,0.40
2019-03-01T09:51:15.903Z,0.70
2019-03-01T09:56:20.517Z,0.37
2019-03-01T10:01:25.261Z,1.53
2019-03-01T10:06:37.825Z,1.90
2019-03-01T10:11:36.881Z,1.07
2019-03-01T10:16:41.956Z,0.63
2019-03-01T10:21:47.028Z,0.30
2019-03-01T10:26:51.434Z,1.00
2019-03-01T10:31:56.056Z,0.37
2019-03-01T10:37:00.841Z,0.50
2019-03-01T10:42:05.912Z,1.93
2019-03-01T10:47:10.387Z,0.40
2019-03-01T10:52:15.613Z,0.57
2019-03-01T10:57:21.961Z,0.73
2019-03-01T11:02:26.402Z,1.33
2019-03-01T11:07:30.846Z,0.70
2019-03-01T11:12:37.028Z,0.83
2019-03-01T11:17:41.663Z,0.37
2019-03-01T11:22:46.690Z,0.70
2019-03-01T11:27:51.162Z,2.77
2019-03-01T11:32:55.924Z,1.10
2019-03-01T11:38:04.254Z,0.40
2019-03-01T11:43:09.059Z,0.33
2019-03-01T11:48:13.606Z,0.70
2019-03-01T11:53:18.687Z,0.50
2019-03-01T11:58:23.251Z,0.68
2019-03-01T12:03:28.086Z,0.88
2019-03-01T12:08:33.128Z,0.60
2019-03-01T12:13:37.623Z,0.40
2019-03-01T12:18:43.223Z,0.30
2019-03-01T12:23:47.945Z,1.60
2019-03-01T12:28:52.884Z,0.33
2019-03-01T12:33:57.920Z,0.57
2019-03-01T12:39:03.161Z,2.50
2019-03-01T12:44:08.968Z,0.40
2019-03-01T12:49:13.678Z,0.80
2019-03-01T12:54:21.743Z,0.63
2019-03-01T12:59:28.603Z,0.30
2019-03-01T13:04:33.578Z,0.30
2019-03-01T13:09:38.722Z,0.43
2019-03-01T13:14:43.195Z,0.40
2019-03-01T13:19:47.849Z,3.13
2019-03-01T13:24:53.534Z,1.07
2019-03-01T13:29:59.815Z,0.67
2019-03-01T13:35:05.142Z,0.50
2019-03-01T13:40:11.403Z,1.50
2019-03-01T13:45:17.506Z,1.57
2019-03-01T13:50:22.977Z,0.60
2019-03-01T13:55:30.392Z,0.80
2019-03-01T14:00:48.831Z,1.20
2019-03-01T14:05:54.838Z,1.53
2019-03-01T14:10:59.398Z,1.20
2019-03-01T14:16:04.424Z,0.60
2019-03-01T14:21:08.828Z,1.10
2019-03-01T14:26:15.203Z,3.10
2019-03-01T14:31:22.337Z,1.20
2019-03-01T14:36:27.084Z,2.63
2019-03-01T14:41:34.260Z,5.67
2019-03-01T14:46:39.070Z,1.77
2019-03-01T14:51:47.759Z,2.87
2019-03-01T14:57:17.248Z,0.83
2019-03-01T15:03:01.727Z,3.43
2019-03-01T15:08:07.767Z,1.70
2019-03-01T15:13:12.916Z,1.73
2019-03-01T15:18:18.033Z,4.23
2019-03-01T15:23:25.096Z,1.73
2019-03-01T15:28:29.634Z,3.70
2019-03-01T15:33:34.473Z,2.53
2019-03-01T15:38:39.408Z,2.47
2019-03-01T15:43:47.323Z,2.03
2019-03-01T15:48:52.223Z,3.37
2019-03-01T15:53:57.601Z,4.97
2019-03-01T15:59:06.071Z,4.03
2019-03-01T16:04:11.715Z,7.17
2019-03-01T16:09:16.972Z,7.77
2019-03-01T16:14:24.133Z,5.20
2019-03-01T16:19:29.493Z,6.57
2019-03-01T16:24:34.868Z,8.77
2019-03-01T16:29:57.609Z,9.97
2019-03-01T16:35:05.446Z,8.50
2019-03-01T16:40:12.041Z,9.70
2019-03-01T16:45:17.692Z,8.00
2019-03-01T16:50:24.799Z,8.90
2019-03-01T16:55:33.557Z,8.67
2019-03-01T17:01:16.363Z,8.23
2019-03-01T17:06:21.224Z,13.80
2019-03-01T17:11:27.035Z,14.03
2019-03-01T17:16:31.661Z,13.87
2019-03-01T17:21:37.412Z,15.53
2019-03-01T17:26:41.932Z,13.30
2019-03-01T17:31:47.438Z,14.20
2019-03-01T17:36:53.319Z,14.47
2019-03-01T17:41:58.433Z,13.17
2019-03-01T17:47:09.356Z,14.93
2019-03-01T17:52:12.633Z,16.20
2019-03-01T17:57:17.306Z,14.60
2019-03-01T18:02:24.171Z,19.40
2019-03-01T18:07:29.231Z,14.50
2019-03-01T18:12:33.835Z,13.90
2019-03-01T18:17:39.654Z,16.33
2019-03-01T18:22:44.792Z,17.63
2019-03-01T18:27:52.662Z,19.67
2019-03-01T18:32:56.503Z,18.03
2019-03-01T18:38:01.614Z,19.70
2019-03-01T18:43:06.364Z,18.63
2019-03-01T18:48:10.971Z,21.85
2019-03-01T18:53:15.455Z,16.43
2019-03-01T18:58:20.642Z,19.10
2019-03-01T19:03:26.165Z,25.93
2019-03-01T19:08:31.289Z,23.17
2019-03-01T19:13:41.811Z,26.23
2019-03-01T19:18:48.226Z,27.90
2019-03-01T19:23:53.382Z,28.70
2019-03-01T19:28:58.916Z,26.10
2019-03-01T19:34:04.859Z,28.37
2019-03-01T19:39:22.153Z,29.40
2019-03-01T19:44:29.865Z,31.50
2019-03-01T19:49:38.379Z,28.47
2019-03-01T19:54:43.159Z,33.50
2019-03-01T19:59:49.611Z,32.93
2019-03-01T20:04:55.646Z,29.97
2019-03-01T20:10:00.343Z,36.07
2019-03-01T20:15:06.634Z,40.53
2019-03-01T20:20:12.735Z,51.77
2019-03-01T20:25:17.976Z,55.13
2019-03-01T20:30:28.658Z,48.87
2019-03-01T20:35:30.980Z,48.20
2019-03-01T20:40:36.033Z,52.27
2019-03-01T20:45:40.610Z,49.63
2019-03-01T20:50:47.617Z,51.97
2019-03-01T20:55:52.483Z,49.03
2019-03-01T21:00:58.976Z,53.30
2019-03-01T21:06:05.650Z,47.50
2019-03-01T21:11:10.907Z,56.33
2019-03-01T21:16:18.038Z,54.17
2019-03-01T21:21:25.513Z,57.83
2019-03-01T21:26:29.942Z,57.07
2019-03-01T21:31:37.500Z,57.40
2019-03-01T21:36:42.299Z,55.80
2019-03-01T21:41:47.192Z,58.50
2019-03-01T21:46:52.171Z,44.83
2019-03-01T21:51:57.581Z,47.07
2019-03-01T21:57:02.255Z,52.80
2019-03-01T22:02:07.315Z,47.53
2019-03-01T22:07:12.541Z,45.97
2019-03-01T22:12:17.200Z,44.57
2019-03-01T22:17:21.809Z,42.47
2019-03-01T22:22:26.318Z,39.63
2019-03-01T22:27:31.022Z,45.37
2019-03-01T22:32:36.005Z,44.70
2019-03-01T22:37:40.539Z,40.00
2019-03-01T22:42:49.368Z,45.78
2019-03-01T22:47:52.833Z,48.87
2019-03-01T22:52:58.439Z,45.80
2019-03-01T22:58:05.595Z,43.27
2019-03-01T23:03:11.765Z,49.73
2019-03-01T23:08:16.893Z,52.33
2019-03-01T23:13:21.942Z,54.13
2019-03-01T23:18:29.694Z,53.75
2019-03-01T23:23:34.891Z,58.03
2019-03-01T23:28:40.804Z,57.87
2019-03-01T23:33:46.478Z,52.70
2019-03-01T23:38:51.726Z,62.37
2019-03-01T23:44:02.867Z,50.52
2019-03-01T23:49:06.647Z,54.67
2019-03-01T23:54:13.834Z,61.17
2019-03-01T23:59:18.646Z,53.93
